Time;durP1;ratioP1;P1;durP2;ratioP2;P2;SDS_P1;SDS_P2;PMS_P1;PMS_P2;Temp;Humidity;BMP_temperature;BMP_pressure;BME280_temperature;BME280_humidity;BME280_pressure;Samples;Min_cycle;Max_cycle;Signal;HPM_P1;HPM_P2
2022/07/23 04:00:20;;;;;;;6.40;5.80;;;15.00;96.30;;;;;;6119581;23;21343;31
2022/07/23 04:02:45;;;;;;;6.00;5.50;;;15.00;96.30;;;;;;4932447;29;20482;-79
2022/07/23 04:05:11;;;;;;;7.13;5.57;;;15.10;96.30;;;;;;4949911;28;20430;-79
2022/07/23 04:07:36;;;;;;;6.40;5.80;;;15.10;96.30;;;;;;4932913;28;20207;-79
2022/07/23 04:10:02;;;;;;;6.30;5.70;;;15.30;96.30;;;;;;4934968;29;20674;-79
2022/07/23 04:12:28;;;;;;;6.17;5.60;;;15.50;96.30;;;;;;4937834;29;20250;-79
2022/07/23 04:14:54;;;;;;;7.03;5.07;;;15.60;96.30;;;;;;4953832;28;20446;-79
2022/07/23 04:17:21;;;;;;;10.43;5.30;;;15.70;96.30;;;;;;4961977;28;20234;-79
2022/07/23 04:19:47;;;;;;;5.90;5.30;;;15.70;96.30;;;;;;4938187;29;20232;-76
2022/07/23 04:22:12;;;;;;;7.17;5.67;;;15.80;96.30;;;;;;4938193;29;20471;-75
2022/07/23 04:24:38;;;;;;;6.23;5.70;;;15.90;96.30;;;;;;4938115;29;20179;-75
2022/07/23 04:27:04;;;;;;;5.70;5.10;;;16.00;96.30;;;;;;4937759;29;20199;-75
2022/07/23 04:29:29;;;;;;;7.17;5.50;;;16.30;96.30;;;;;;4937475;29;20687;-75
2022/07/23 04:31:55;;;;;;;6.73;6.03;;;16.50;96.30;;;;;;4937657;29;20690;-78
2022/07/23 04:34:20;;;;;;;9.43;5.20;;;16.60;96.30;;;;;;4937789;29;20307;-75
2022/07/23 04:36:46;;;;;;;8.93;5.00;;;16.60;96.30;;;;;;4937754;29;20194;-76
2022/07/23 04:39:11;;;;;;;5.37;4.93;;;16.50;96.30;;;;;;4937603;29;20176;-76
2022/07/23 04:41:37;;;;;;;7.53;6.10;;;16.50;96.30;;;;;;4955009;29;20285;-78
2022/07/23 04:44:03;;;;;;;9.00;5.10;;;16.50;96.30;;;;;;4956803;28;20175;-75
2022/07/23 04:46:28;;;;;;;8.20;5.07;;;16.40;96.30;;;;;;4956876;28;20218;-76
2022/07/23 04:48:54;;;;;;;6.00;5.50;;;16.40;96.30;;;;;;4956608;28;20199;-76
2022/07/23 04:51:20;;;;;;;6.03;5.43;;;16.50;96.30;;;;;;4956743;28;20213;-76
2022/07/23 04:53:45;;;;;;;5.90;5.40;;;16.50;96.30;;;;;;4956620;28;20546;-79
2022/07/23 04:56:11;;;;;;;6.20;5.60;;;16.50;96.30;;;;;;4956905;28;20648;-76
2022/07/23 04:58:36;;;;;;;7.80;6.23;;;16.50;96.30;;;;;;4956330;28;20189;-76
2022/07/23 05:01:02;;;;;;;6.37;5.53;;;16.50;96.30;;;;;;4956116;28;20267;-79
2022/07/23 05:03:28;;;;;;;7.73;5.77;;;16.60;96.30;;;;;;4950504;28;20195;-79
2022/07/23 05:05:53;;;;;;;6.90;5.63;;;16.60;96.30;;;;;;4937184;29;20258;-79
2022/07/23 05:08:19;;;;;;;4.90;4.50;;;16.70;96.30;;;;;;4936958;29;20188;-76
2022/07/23 05:10:44;;;;;;;8.23;4.73;;;16.80;96.30;;;;;;4938204;29;20287;-79
2022/07/23 05:13:10;;;;;;;4.63;4.23;;;16.80;96.30;;;;;;4930420;29;20667;-79
2022/07/23 05:15:35;;;;;;;4.87;4.20;;;16.80;96.30;;;;;;4936420;29;20609;-77
2022/07/23 05:18:01;;;;;;;5.73;5.00;;;16.80;96.30;;;;;;4936372;29;20675;-76
2022/07/23 05:20:26;;;;;;;11.23;4.83;;;16.70;96.30;;;;;;4936245;29;20651;-79
2022/07/23 05:22:52;;;;;;;5.47;4.90;;;16.60;96.30;;;;;;4937264;29;20195;-76
2022/07/23 05:25:18;;;;;;;7.03;6.00;;;16.40;96.30;;;;;;4940076;29;20183;-75
2022/07/23 05:27:43;;;;;;;5.60;5.10;;;16.30;96.30;;;;;;4930376;29;20200;-79
2022/07/23 05:30:09;;;;;;;6.07;5.40;;;16.30;96.30;;;;;;4929818;29;20912;-79
2022/07/23 05:32:36;;;;;;;5.97;5.37;;;16.20;96.30;;;;;;4917209;29;20795;-79
2022/07/23 05:35:04;;;;;;;7.10;5.87;;;16.10;96.30;;;;;;4935573;29;20516;-78
2022/07/23 05:37:29;;;;;;;6.60;5.70;;;16.10;96.30;;;;;;4933720;29;20856;-78
2022/07/23 05:39:55;;;;;;;8.87;5.27;;;16.10;96.30;;;;;;4942763;28;20419;-79
2022/07/23 05:42:20;;;;;;;5.77;5.13;;;16.10;96.30;;;;;;4971751;28;20198;-79
2022/07/23 05:44:46;;;;;;;6.17;5.57;;;16.10;96.30;;;;;;4971080;28;20230;-79
2022/07/23 05:47:11;;;;;;;9.50;6.70;;;16.10;96.30;;;;;;4956383;28;20666;-80
2022/07/23 05:49:38;;;;;;;6.83;6.07;;;16.10;96.30;;;;;;4956656;28;20167;-79
2022/07/23 05:52:05;;;;;;;9.90;6.43;;;16.10;96.30;;;;;;4955616;28;20191;-79
2022/07/23 05:54:33;;;;;;;6.53;5.90;;;16.20;96.30;;;;;;4970283;28;20841;-79
2022/07/23 05:56:58;;;;;;;6.30;5.80;;;16.20;96.30;;;;;;4955413;28;20906;-79
2022/07/23 05:59:24;;;;;;;7.77;5.63;;;16.20;96.30;;;;;;4969753;28;20481;-79
2022/07/23 06:01:49;;;;;;;6.10;5.60;;;16.20;96.30;;;;;;4955101;28;20206;-79
2022/07/23 06:04:15;;;;;;;7.37;4.83;;;16.30;96.30;;;;;;4954972;28;20186;-79
2022/07/23 06:06:40;;;;;;;6.10;5.50;;;16.20;96.30;;;;;;4955151;28;20261;-79
2022/07/23 06:09:06;;;;;;;9.40;6.10;;;16.30;96.30;;;;;;4955081;28;20186;-79
2022/07/23 06:11:31;;;;;;;6.70;5.60;;;16.40;96.30;;;;;;4955173;28;20199;-79
2022/07/23 06:13:57;;;;;;;8.23;5.50;;;16.40;96.30;;;;;;4955236;28;20179;-79
2022/07/23 06:16:22;;;;;;;5.70;5.10;;;16.50;96.30;;;;;;4955163;28;20183;-79
2022/07/23 06:18:48;;;;;;;5.93;5.43;;;16.60;96.30;;;;;;4950761;28;20222;-79
2022/07/23 06:21:13;;;;;;;6.73;5.73;;;16.70;96.30;;;;;;4935813;29;20215;-76
2022/07/23 06:23:39;;;;;;;7.03;6.30;;;16.70;96.30;;;;;;4950403;29;20220;-79
2022/07/23 06:26:04;;;;;;;8.10;6.40;;;16.70;96.30;;;;;;4936434;29;20190;-76
2022/07/23 06:28:30;;;;;;;7.40;6.67;;;16.70;96.30;;;;;;4939068;29;20180;-79
2022/07/23 06:30:55;;;;;;;7.20;5.73;;;16.70;96.30;;;;;;4935205;29;20231;-79
2022/07/23 06:33:21;;;;;;;7.83;6.40;;;16.80;96.30;;;;;;4943826;29;20203;-79
2022/07/23 06:35:46;;;;;;;7.40;6.80;;;16.80;96.30;;;;;;4965628;28;20853;-79
2022/07/23 06:38:12;;;;;;;7.17;5.43;;;16.90;96.30;;;;;;4940489;29;20187;-76
2022/07/23 06:40:38;;;;;;;9.00;6.43;;;16.90;96.30;;;;;;4943942;29;20565;-77
2022/07/23 06:43:03;;;;;;;7.77;7.07;;;17.00;96.30;;;;;;4969199;28;20415;-77
2022/07/23 06:45:29;;;;;;;10.43;7.47;;;17.00;96.30;;;;;;4941113;28;20180;-82
2022/07/23 06:47:54;;;;;;;8.40;6.87;;;17.20;96.30;;;;;;4925814;29;20199;-76
2022/07/23 06:50:20;;;;;;;7.07;6.37;;;17.40;96.30;;;;;;4933543;29;20601;-81
2022/07/23 06:52:46;;;;;;;7.27;6.67;;;17.40;96.30;;;;;;4929573;29;20232;-79
2022/07/23 06:55:11;;;;;;;8.40;7.60;;;17.30;96.30;;;;;;4932725;29;20223;-75
2022/07/23 06:57:37;;;;;;;8.17;7.40;;;17.50;96.30;;;;;;4934743;29;20639;-75
2022/07/23 07:00:04;;;;;;;7.90;7.10;;;17.60;96.30;;;;;;4928300;29;20192;-74
2022/07/23 07:02:30;;;;;;;7.50;6.67;;;17.60;96.30;;;;;;4930682;29;20223;-76
2022/07/23 07:04:56;;;;;;;7.80;7.10;;;17.70;96.30;;;;;;4932590;29;20424;-75
2022/07/23 07:07:21;;;;;;;7.83;7.13;;;17.70;96.30;;;;;;4917267;29;20200;-77
2022/07/23 07:09:47;;;;;;;7.73;6.67;;;17.80;96.30;;;;;;4933873;29;20179;-77
2022/07/23 07:12:12;;;;;;;7.20;6.50;;;17.90;96.30;;;;;;4956923;28;20195;-78
2022/07/23 07:14:38;;;;;;;8.50;7.67;;;17.60;96.30;;;;;;4970234;28;20667;-77
2022/07/23 07:17:03;;;;;;;8.13;7.40;;;17.40;96.30;;;;;;4954347;28;20190;-77
2022/07/23 07:19:29;;;;;;;11.03;7.80;;;17.30;96.30;;;;;;4954544;28;20250;-77
2022/07/23 07:21:54;;;;;;;8.20;7.40;;;17.60;96.30;;;;;;4970109;28;20210;-78
2022/07/23 07:24:20;;;;;;;9.47;7.93;;;18.00;96.30;;;;;;4970655;28;20259;-78
2022/07/23 07:26:45;;;;;;;11.00;8.20;;;18.40;96.30;;;;;;4955147;28;20289;-78
2022/07/23 07:29:11;;;;;;;11.37;7.47;;;18.60;96.30;;;;;;4955940;28;20187;-78
2022/07/23 07:31:36;;;;;;;9.80;7.33;;;18.90;96.30;;;;;;4955405;28;20195;-78
2022/07/23 07:34:03;;;;;;;9.67;8.63;;;18.90;96.30;;;;;;4955001;28;20171;-78
2022/07/23 07:36:28;;;;;;;15.70;11.10;;;19.40;96.30;;;;;;4954253;28;20181;-79
2022/07/23 07:38:54;;;;;;;12.60;8.37;;;19.80;96.30;;;;;;4958248;28;20418;-80
2022/07/23 07:41:23;;;;;;;13.10;9.70;;;19.60;96.30;;;;;;4961254;28;20227;-78
2022/07/23 07:43:49;;;;;;;10.60;8.77;;;20.10;96.30;;;;;;4950137;28;20239;-74
2022/07/23 07:46:15;;;;;;;10.03;8.40;;;20.30;96.30;;;;;;4950811;29;20465;-76
2022/07/23 07:48:41;;;;;;;8.37;7.23;;;19.80;96.30;;;;;;4941853;29;20447;-76
2022/07/23 07:51:06;;;;;;;26.23;8.47;;;20.30;96.30;;;;;;4938432;29;20211;-76
2022/07/23 07:53:32;;;;;;;14.60;8.70;;;20.90;96.30;;;;;;4938419;29;20187;-75
2022/07/23 07:55:58;;;;;;;17.30;8.80;;;20.70;96.30;;;;;;4953489;29;20382;-75
2022/07/23 07:58:23;;;;;;;8.97;8.00;;;21.10;96.30;;;;;;4937263;29;20267;-75
2022/07/23 08:00:49;;;;;;;9.67;8.67;;;21.10;96.30;;;;;;4935317;29;20222;-76
2022/07/23 08:03:14;;;;;;;10.33;8.80;;;21.30;96.30;;;;;;4954209;29;20179;-75
2022/07/23 08:05:40;;;;;;;9.83;8.97;;;21.20;96.30;;;;;;4954106;28;20274;-75
2022/07/23 08:08:05;;;;;;;10.77;9.70;;;21.30;96.30;;;;;;4938627;29;20745;-74
2022/07/23 08:10:31;;;;;;;9.87;8.87;;;21.20;96.30;;;;;;4951984;29;20709;-77
2022/07/23 08:12:58;;;;;;;9.50;8.50;;;21.30;96.30;;;;;;4956976;28;20183;-76
2022/07/23 08:15:26;;;;;;;13.33;8.63;;;21.70;96.30;;;;;;4938003;28;20657;-78
2022/07/23 08:17:51;;;;;;;11.93;8.23;;;22.90;96.30;;;;;;4937447;29;20423;-77
2022/07/23 08:20:19;;;;;;;8.83;8.03;;;22.50;96.30;;;;;;4937724;29;20446;-79
2022/07/23 08:22:59;;;;;;;14.20;9.13;;;22.90;96.30;;;;;;4937596;29;20252;-77
2022/07/23 08:25:27;;;;;;;11.43;8.90;;;22.70;96.30;;;;;;4937530;29;20423;-79
2022/07/23 08:27:53;;;;;;;8.07;7.37;;;23.70;96.30;;;;;;4937006;28;20459;-77
2022/07/23 08:30:19;;;;;;;8.70;7.87;;;24.70;96.30;;;;;;4937475;29;20407;-79
2022/07/23 08:33:00;;;;;;;10.70;8.20;;;26.40;94.70;;;;;;4937377;29;20407;-77
2022/07/23 08:35:30;;;;;;;9.13;8.23;;;26.00;95.00;;;;;;4937458;29;20910;-79
2022/07/23 08:37:56;;;;;;;9.73;8.00;;;27.00;90.50;;;;;;4937184;29;20502;-78
2022/07/23 08:40:24;;;;;;;9.50;7.67;;;26.10;93.40;;;;;;4944527;29;20464;-77
2022/07/23 08:42:50;;;;;;;7.40;6.63;;;26.00;94.80;;;;;;4956379;28;20422;-78
2022/07/23 08:45:20;;;;;;;7.67;6.97;;;26.00;94.60;;;;;;4956482;28;20414;-78
2022/07/23 08:47:48;;;;;;;17.60;6.27;;;25.80;94.10;;;;;;4956349;28;20454;-80
2022/07/23 08:50:14;;;;;;;7.87;7.17;;;25.50;95.60;;;;;;4956253;28;20477;-77
2022/07/23 08:52:40;;;;;;;8.30;7.60;;;25.00;95.90;;;;;;4956132;28;20934;-79
2022/07/23 08:55:06;;;;;;;8.47;7.70;;;23.20;96.30;;;;;;4956245;28;20183;-77
2022/07/23 08:57:32;;;;;;;10.50;7.20;;;22.70;96.30;;;;;;4955679;28;20202;-78
2022/07/23 08:59:58;;;;;;;8.23;7.43;;;23.60;96.30;;;;;;4955803;28;20465;-77
2022/07/23 09:02:23;;;;;;;8.30;7.33;;;23.70;96.30;;;;;;4955985;28;20225;-77
2022/07/23 09:04:49;;;;;;;13.83;7.20;;;25.10;96.30;;;;;;4956075;28;20276;-77
2022/07/23 09:07:15;;;;;;;8.03;7.00;;;25.10;96.30;;;;;;4954664;29;20202;-78
2022/07/23 09:09:40;;;;;;;8.50;7.27;;;25.90;95.00;;;;;;4955909;28;20178;-80
2022/07/23 09:12:08;;;;;;;11.03;6.80;;;25.40;96.30;;;;;;4955956;28;20698;-77
2022/07/23 09:14:46;;;;;;;16.97;7.53;;;25.70;96.30;;;;;;4970456;28;20202;-77
2022/07/23 09:17:14;;;;;;;9.60;6.70;;;25.90;93.40;;;;;;4945661;28;20419;-76
2022/07/23 09:19:41;;;;;;;9.20;6.87;;;26.00;96.30;;;;;;4955075;28;20446;-77
2022/07/23 09:22:16;;;;;;;13.17;6.50;;;26.40;94.30;;;;;;4970539;28;20988;-79
2022/07/23 09:25:13;;;;;;;6.90;6.17;;;26.30;96.30;;;;;;4945005;28;20462;-77
2022/07/23 09:27:50;;;;;;;9.40;6.23;;;26.20;95.90;;;;;;4935682;29;20496;-76
2022/07/23 09:30:16;;;;;;;8.20;5.67;;;26.10;94.80;;;;;;4936255;29;20759;-76
2022/07/23 09:32:43;;;;;;;7.73;6.90;;;26.60;94.60;;;;;;4938603;29;20458;-80
2022/07/23 09:35:09;;;;;;;7.80;7.10;;;26.20;94.70;;;;;;4938724;29;20434;-80
2022/07/23 09:37:34;;;;;;;9.03;6.20;;;26.20;95.40;;;;;;4937760;29;20190;-79
2022/07/23 09:40:09;;;;;;;6.77;6.20;;;27.20;93.80;;;;;;4933388;29;20193;-79
2022/07/23 09:42:35;;;;;;;8.03;6.43;;;28.50;89.60;;;;;;4932296;29;20203;-78
2022/07/23 09:45:01;;;;;;;6.77;6.27;;;28.80;89.90;;;;;;4939525;29;20430;-80
2022/07/23 09:47:31;;;;;;;7.40;6.43;;;29.40;86.20;;;;;;4938156;29;20230;-79
2022/07/23 09:50:06;;;;;;;7.67;5.83;;;28.90;87.90;;;;;;4937552;29;20549;-79
2022/07/23 09:52:44;;;;;;;10.43;5.67;;;28.90;87.50;;;;;;4954411;29;21046;-79
2022/07/23 09:55:10;;;;;;;5.13;4.70;;;29.20;85.80;;;;;;4938161;29;20411;-79
2022/07/23 09:57:35;;;;;;;5.37;4.67;;;30.00;87.90;;;;;;4932778;29;20422;-80
2022/07/23 10:00:05;;;;;;;6.13;4.90;;;29.90;84.10;;;;;;4933384;29;20419;-79
2022/07/23 10:02:33;;;;;;;6.07;5.47;;;28.70;85.30;;;;;;4932057;29;20215;-78
2022/07/23 10:05:01;;;;;;;6.33;5.83;;;28.50;86.90;;;;;;4935819;29;20423;-79
2022/07/23 10:07:29;;;;;;;13.90;5.37;;;28.30;88.60;;;;;;4935031;29;20518;-79
2022/07/23 10:09:55;;;;;;;6.13;5.33;;;28.90;89.30;;;;;;4933309;29;20794;-79
2022/07/23 10:15:08;;;;;;;6.50;5.20;;;30.70;84.00;;;;;;4939506;29;20186;-80
2022/07/23 10:17:35;;;;;;;11.33;5.00;;;30.40;83.00;;;;;;4928158;29;20424;-77
2022/07/23 10:20:01;;;;;;;5.77;4.80;;;29.90;83.90;;;;;;4922333;29;20439;-77
2022/07/23 10:23:15;;;;;;;6.63;5.00;;;28.80;85.50;;;;;;4933930;29;20443;-77
2022/07/23 10:25:51;;;;;;;5.33;4.70;;;27.40;88.70;;;;;;4935060;29;20957;-78
2022/07/23 10:28:41;;;;;;;6.17;5.00;;;26.70;90.10;;;;;;4934932;29;20613;-78
2022/07/23 10:31:32;;;;;;;6.83;5.10;;;26.20;92.20;;;;;;4935886;29;20517;-78
2022/07/23 10:34:07;;;;;;;6.57;4.63;;;26.00;94.70;;;;;;4937151;29;20411;-78
2022/07/23 10:36:55;;;;;;;6.07;5.47;;;26.20;93.70;;;;;;4936232;29;20505;-78
2022/07/23 10:39:29;;;;;;;8.73;4.73;;;26.50;92.20;;;;;;4933373;29;20414;-78
2022/07/23 10:42:13;;;;;;;5.47;4.87;;;26.40;91.10;;;;;;4915920;29;20432;-77
2022/07/23 10:44:47;;;;;;;5.50;4.20;;;26.40;93.70;;;;;;4915928;29;20467;-77
2022/07/23 10:47:38;;;;;;;9.23;4.30;;;27.00;92.80;;;;;;4930475;29;20527;-78
2022/07/23 10:50:21;;;;;;;4.77;4.23;;;27.50;91.20;;;;;;4930517;29;20416;-78
2022/07/23 10:53:08;;;;;;;5.23;4.73;;;28.40;88.90;;;;;;4930289;29;20488;-78
2022/07/23 10:55:34;;;;;;;9.27;4.80;;;28.00;87.20;;;;;;4915874;29;20411;-78
2022/07/23 10:58:01;;;;;;;5.53;4.90;;;27.70;88.00;;;;;;4930678;29;20429;-78
2022/07/23 11:00:31;;;;;;;7.17;4.90;;;27.30;90.10;;;;;;4949155;29;20194;-78
2022/07/23 11:03:08;;;;;;;5.30;4.90;;;26.80;89.80;;;;;;4934779;29;20815;-78
2022/07/23 11:05:45;;;;;;;5.93;5.23;;;26.60;91.00;;;;;;4933675;29;20422;-77
2022/07/23 11:08:21;;;;;;;7.13;5.20;;;27.20;92.10;;;;;;4933927;29;20497;-78
2022/07/23 11:10:50;;;;;;;6.37;5.43;;;27.80;89.60;;;;;;4950850;29;20440;-77
2022/07/23 11:13:22;;;;;;;6.20;5.60;;;27.80;86.80;;;;;;4953808;28;20406;-78
2022/07/23 11:16:04;;;;;;;9.87;6.00;;;27.40;88.40;;;;;;4953813;28;20414;-78
2022/07/23 11:18:42;;;;;;;6.77;5.13;;;26.80;89.60;;;;;;4953433;28;20442;-78
2022/07/23 11:21:31;;;;;;;6.30;5.20;;;26.50;93.40;;;;;;4957712;28;20468;-77
2022/07/23 11:23:57;;;;;;;5.87;5.27;;;26.30;91.20;;;;;;4957712;28;20410;-78
2022/07/23 11:26:45;;;;;;;8.47;5.17;;;25.70;93.80;;;;;;4957611;28;20457;-78
2022/07/23 11:29:26;;;;;;;5.73;4.83;;;25.70;93.80;;;;;;4957693;28;20249;-78
2022/07/23 11:31:56;;;;;;;7.20;5.10;;;25.90;94.40;;;;;;4950638;28;20926;-77
2022/07/23 11:34:28;;;;;;;6.80;4.57;;;25.50;94.20;;;;;;4938320;29;20850;-78
2022/07/23 11:36:53;;;;;;;7.13;4.33;;;25.10;96.30;;;;;;4953009;29;20431;-77
2022/07/23 11:39:20;;;;;;;10.83;4.67;;;25.10;96.10;;;;;;4937943;29;20423;-77
2022/07/23 11:41:46;;;;;;;4.93;4.47;;;25.00;95.60;;;;;;4956317;29;20221;-76
2022/07/23 11:44:25;;;;;;;6.70;4.97;;;24.90;96.30;;;;;;4957386;28;20906;-76
2022/07/23 11:47:05;;;;;;;7.30;5.17;;;24.80;95.30;;;;;;4957316;28;20226;-76
2022/07/23 11:49:31;;;;;;;8.20;4.30;;;25.20;96.30;;;;;;4957038;28;20407;-76
2022/07/23 11:52:12;;;;;;;6.43;4.47;;;25.50;95.70;;;;;;4957106;28;20427;-76
2022/07/23 11:54:52;;;;;;;5.03;4.20;;;25.40;96.30;;;;;;4957102;29;20411;-76
2022/07/23 11:57:19;;;;;;;9.37;4.43;;;25.90;96.30;;;;;;4957229;28;20500;-76
2022/07/23 11:59:49;;;;;;;5.00;3.73;;;26.50;94.40;;;;;;4956962;28;20473;-76
2022/07/23 12:02:15;;;;;;;6.30;3.90;;;26.90;93.50;;;;;;4956917;28;20562;-76
2022/07/23 12:04:41;;;;;;;7.47;4.47;;;26.70;92.70;;;;;;4956941;28;20436;-77
2022/07/23 12:07:29;;;;;;;6.90;4.80;;;26.10;95.00;;;;;;4956454;28;20210;-77
2022/07/23 12:09:57;;;;;;;7.83;4.47;;;26.20;95.70;;;;;;4947381;28;20415;-78
2022/07/23 12:12:23;;;;;;;4.77;4.37;;;26.20;93.50;;;;;;4937874;29;20435;-77
2022/07/23 12:14:54;;;;;;;5.13;4.60;;;26.20;92.70;;;;;;4938232;29;20415;-77
2022/07/23 12:17:21;;;;;;;9.80;4.90;;;25.40;94.80;;;;;;4937945;29;20424;-77
2022/07/23 12:19:48;;;;;;;12.10;5.17;;;25.00;96.30;;;;;;4937815;29;20411;-78
2022/07/23 12:22:16;;;;;;;5.30;4.57;;;25.50;96.30;;;;;;4937195;29;20518;-77
2022/07/23 12:25:05;;;;;;;8.33;5.30;;;26.20;94.20;;;;;;4937353;29;20423;-77
2022/07/23 12:27:31;;;;;;;5.87;4.63;;;26.00;94.00;;;;;;4937057;29;20470;-77
2022/07/23 12:29:56;;;;;;;5.83;5.00;;;25.20;96.30;;;;;;4937220;29;20423;-77
2022/07/23 12:32:28;;;;;;;7.13;4.83;;;25.60;96.30;;;;;;4936347;29;20207;-76
2022/07/23 12:35:06;;;;;;;11.00;4.83;;;26.10;94.90;;;;;;4937471;29;20198;-77
2022/07/23 12:37:38;;;;;;;5.07;4.33;;;26.10;94.50;;;;;;4951397;29;20450;-77
2022/07/23 12:40:44;;;;;;;5.90;5.00;;;25.70;94.80;;;;;;4941674;29;20437;-77
2022/07/23 12:43:19;;;;;;;7.40;4.23;;;25.50;95.90;;;;;;4914990;29;20428;-77
2022/07/23 12:45:53;;;;;;;7.30;5.43;;;25.40;96.30;;;;;;4945589;29;20782;-77
2022/07/23 12:48:24;;;;;;;6.97;5.13;;;24.90;96.30;;;;;;4936347;29;20781;-77
2022/07/23 12:50:56;;;;;;;13.23;4.70;;;24.60;96.30;;;;;;4936106;29;20443;-78
2022/07/23 12:53:25;;;;;;;6.20;5.70;;;24.30;96.30;;;;;;4936815;29;20404;-77
2022/07/23 12:55:59;;;;;;;5.43;4.77;;;24.10;96.30;;;;;;4936880;29;20462;-77
2022/07/23 12:58:24;;;;;;;8.43;4.83;;;24.70;96.30;;;;;;4936672;29;20423;-77
2022/07/23 13:00:59;;;;;;;9.90;5.27;;;25.30;96.30;;;;;;4936289;29;20821;-77
2022/07/23 13:03:31;;;;;;;8.30;5.00;;;25.50;96.30;;;;;;4936008;29;20201;-77
2022/07/23 13:05:57;;;;;;;6.60;5.23;;;26.10;96.30;;;;;;4917770;29;20446;-77
2022/07/23 13:08:24;;;;;;;6.47;4.73;;;26.00;95.80;;;;;;4924191;29;20467;-78
2022/07/23 13:10:51;;;;;;;8.77;4.83;;;25.90;95.90;;;;;;4952704;29;20982;-77
2022/07/23 13:13:19;;;;;;;8.17;4.90;;;25.40;94.90;;;;;;4955522;28;20754;-76
2022/07/23 13:15:45;;;;;;;8.80;5.70;;;24.70;96.30;;;;;;4955271;29;20477;-77
2022/07/23 13:18:11;;;;;;;7.30;5.60;;;24.50;96.30;;;;;;4954888;28;20414;-77
2022/07/23 13:20:38;;;;;;;8.33;5.10;;;24.50;96.30;;;;;;4955036;28;20175;-77
2022/07/23 13:23:05;;;;;;;15.23;5.57;;;24.70;96.30;;;;;;4953878;29;20662;-77
2022/07/23 13:25:30;;;;;;;9.00;5.80;;;25.20;96.30;;;;;;4955092;28;20414;-77
2022/07/23 13:27:55;;;;;;;8.07;5.37;;;25.40;96.30;;;;;;4954641;28;21039;-77
2022/07/23 13:30:21;;;;;;;10.40;6.20;;;25.30;96.30;;;;;;4953848;29;20269;-77
2022/07/23 13:32:48;;;;;;;6.63;5.93;;;25.00;96.30;;;;;;4954826;28;20202;-76
2022/07/23 13:35:14;;;;;;;12.23;5.70;;;25.00;96.30;;;;;;4938925;28;20188;-76
2022/07/23 13:37:39;;;;;;;8.13;5.90;;;25.20;96.30;;;;;;4933996;29;20431;-77
2022/07/23 13:40:06;;;;;;;13.23;5.90;;;25.30;96.30;;;;;;4939732;29;20808;-77
2022/07/23 13:42:31;;;;;;;9.17;5.63;;;25.10;96.30;;;;;;4934168;29;20196;-77
2022/07/23 13:44:57;;;;;;;6.20;5.53;;;24.50;96.30;;;;;;4934955;29;20427;-77
2022/07/23 13:47:22;;;;;;;7.37;6.67;;;24.10;96.30;;;;;;4934449;29;20501;-78
2022/07/23 13:49:47;;;;;;;12.63;5.53;;;23.90;96.30;;;;;;4926234;29;20177;-78
2022/07/23 13:52:13;;;;;;;6.20;5.60;;;23.60;96.30;;;;;;4918213;29;20623;-78
2022/07/23 13:54:38;;;;;;;8.00;6.17;;;23.50;96.30;;;;;;4916655;29;20188;-78
2022/07/23 13:57:04;;;;;;;7.97;6.07;;;23.30;96.30;;;;;;4916893;29;20179;-78
2022/07/23 13:59:30;;;;;;;8.80;6.73;;;23.30;96.30;;;;;;4916245;29;20176;-77
2022/07/23 14:01:55;;;;;;;8.60;5.83;;;23.30;96.30;;;;;;4922157;29;20463;-77
2022/07/23 14:04:21;;;;;;;7.70;6.40;;;23.10;96.30;;;;;;4921538;29;20263;-77
2022/07/23 14:06:47;;;;;;;11.40;6.37;;;23.10;96.30;;;;;;4918846;29;20195;-78
2022/07/23 14:09:13;;;;;;;9.03;7.00;;;23.10;96.30;;;;;;4935175;29;20425;-78
2022/07/23 14:11:39;;;;;;;8.30;7.50;;;22.80;96.30;;;;;;4946905;28;20208;-78
2022/07/23 14:14:05;;;;;;;14.70;6.70;;;23.10;96.30;;;;;;4935468;29;20543;-78
2022/07/23 14:16:30;;;;;;;11.60;7.83;;;24.00;96.30;;;;;;4942570;29;20533;-78
2022/07/23 14:18:56;;;;;;;16.30;7.03;;;24.60;96.30;;;;;;4940933;28;20426;-78
2022/07/23 14:21:21;;;;;;;9.53;7.03;;;24.60;96.30;;;;;;4934931;29;20203;-78
2022/07/23 14:23:47;;;;;;;8.10;6.60;;;24.30;96.30;;;;;;4924828;29;20189;-78
2022/07/23 14:26:12;;;;;;;14.37;7.17;;;24.70;96.30;;;;;;4937799;29;20175;-78
2022/07/23 14:28:38;;;;;;;11.03;7.07;;;24.50;96.30;;;;;;4938583;29;20253;-79
2022/07/23 14:31:03;;;;;;;7.87;7.07;;;24.70;96.30;;;;;;4939748;29;20614;-77
2022/07/23 14:33:29;;;;;;;9.00;7.03;;;25.00;96.30;;;;;;4934635;29;20773;-76
2022/07/23 14:35:54;;;;;;;9.87;8.00;;;25.30;96.30;;;;;;4934530;29;20680;-77
2022/07/23 14:38:20;;;;;;;8.90;8.00;;;24.50;96.30;;;;;;4934299;29;20179;-77
2022/07/23 14:40:45;;;;;;;9.33;7.37;;;24.70;96.30;;;;;;4945530;29;20209;-77
2022/07/23 14:43:11;;;;;;;7.97;6.93;;;25.20;96.30;;;;;;4954121;28;20178;-78
2022/07/23 14:45:36;;;;;;;9.63;7.17;;;24.70;96.30;;;;;;4954088;28;20592;-79
2022/07/23 14:48:02;;;;;;;8.17;7.37;;;24.30;96.30;;;;;;4953144;28;20249;-76
2022/07/23 14:50:28;;;;;;;6.80;6.20;;;24.30;96.30;;;;;;4953766;28;20194;-76
2022/07/23 14:52:54;;;;;;;8.30;6.50;;;24.40;96.30;;;;;;4969001;28;20233;-76
2022/07/23 14:55:20;;;;;;;8.30;6.87;;;24.50;96.30;;;;;;4953672;28;20218;-76
2022/07/23 14:57:46;;;;;;;8.77;6.63;;;24.40;96.30;;;;;;4953107;28;20187;-77
2022/07/23 15:00:11;;;;;;;11.43;7.47;;;24.50;96.30;;;;;;4953423;28;20174;-76
2022/07/23 15:02:37;;;;;;;8.43;7.63;;;25.10;96.30;;;;;;4960923;28;20447;-78
2022/07/23 15:05:03;;;;;;;8.93;7.40;;;25.40;96.30;;;;;;4935019;29;20183;-76
2022/07/23 15:07:29;;;;;;;8.27;7.53;;;25.70;96.30;;;;;;4935102;29;20226;-77
2022/07/23 15:09:58;;;;;;;11.80;8.00;;;25.40;96.20;;;;;;4938705;29;20226;-77
2022/07/23 15:12:23;;;;;;;8.80;7.90;;;24.60;96.30;;;;;;4944877;29;20955;-77
2022/07/23 15:14:49;;;;;;;13.80;8.80;;;23.70;96.30;;;;;;4923958;29;20417;-77
2022/07/23 15:17:15;;;;;;;9.73;8.87;;;23.30;96.30;;;;;;4928205;29;20204;-77
2022/07/23 15:19:40;;;;;;;10.17;8.70;;;23.00;96.30;;;;;;4932868;29;20179;-77
2022/07/23 15:22:06;;;;;;;9.87;8.60;;;22.70;96.30;;;;;;4933571;29;20266;-76
2022/07/23 15:24:31;;;;;;;9.80;8.90;;;22.60;96.30;;;;;;4924237;29;20223;-75
2022/07/23 15:26:57;;;;;;;14.10;7.47;;;22.50;96.30;;;;;;4920033;29;20271;-75
2022/07/23 15:29:23;;;;;;;9.60;8.70;;;22.50;96.30;;;;;;4925596;29;20188;-76
2022/07/23 15:31:48;;;;;;;9.97;8.63;;;22.50;96.30;;;;;;4915349;29;20720;-77
2022/07/23 15:34:14;;;;;;;10.27;8.03;;;22.70;96.30;;;;;;4915431;29;20220;-77
2022/07/23 15:36:39;;;;;;;8.83;8.07;;;22.70;96.30;;;;;;4915633;29;20184;-77
2022/07/23 15:39:05;;;;;;;8.77;7.60;;;22.70;96.30;;;;;;4914837;29;20188;-77
2022/07/23 15:41:31;;;;;;;9.67;7.93;;;22.80;96.30;;;;;;4947499;29;20261;-79
2022/07/23 15:43:57;;;;;;;8.60;7.90;;;23.10;96.30;;;;;;4958378;28;20187;-80
2022/07/23 15:46:23;;;;;;;10.10;8.40;;;23.50;96.30;;;;;;4938865;29;20267;-81
2022/07/23 15:48:49;;;;;;;9.07;8.07;;;24.30;96.30;;;;;;4951080;29;20675;-81
2022/07/23 15:51:15;;;;;;;7.77;7.10;;;24.00;96.30;;;;;;4920541;29;20519;-81
2022/07/23 15:53:41;;;;;;;8.70;7.90;;;24.00;96.30;;;;;;4939422;29;20924;-81
2022/07/23 15:56:08;;;;;;;8.80;8.10;;;23.80;96.30;;;;;;4940577;29;20915;-80
2022/07/23 15:58:34;;;;;;;8.70;7.87;;;23.80;96.30;;;;;;4940322;29;20983;-80
2022/07/23 16:01:03;;;;;;;8.40;7.70;;;23.50;96.30;;;;;;4954508;29;20471;-81
2022/07/23 16:03:29;;;;;;;9.30;7.40;;;23.30;96.30;;;;;;4940417;29;20180;-81
2022/07/23 16:05:55;;;;;;;8.40;7.73;;;23.20;96.30;;;;;;4940898;28;20416;-81
2022/07/23 16:08:20;;;;;;;8.97;8.07;;;23.20;96.30;;;;;;4943712;29;20543;-80
2022/07/23 16:10:46;;;;;;;9.13;8.03;;;23.00;96.30;;;;;;4959445;29;20742;-81
2022/07/23 16:13:11;;;;;;;8.80;8.03;;;23.30;96.30;;;;;;4962814;28;20242;-81
2022/07/23 16:15:37;;;;;;;8.60;7.87;;;23.40;96.30;;;;;;4976130;28;20548;-79
2022/07/23 16:18:03;;;;;;;9.60;8.80;;;23.50;96.30;;;;;;4957473;28;20250;-79
2022/07/23 16:20:28;;;;;;;9.53;8.63;;;23.50;96.30;;;;;;4957355;29;20206;-80
2022/07/23 16:28:06;;;;;;;15.03;8.57;;;23.70;96.30;;;;;;6072900;23;20835;-77
2022/07/23 16:30:32;;;;;;;9.20;8.40;;;23.60;96.30;;;;;;4994809;28;20421;-77
2022/07/23 16:32:57;;;;;;;9.20;8.10;;;23.60;96.30;;;;;;4995648;28;20496;-77
2022/07/23 16:35:23;;;;;;;9.77;8.87;;;23.40;96.30;;;;;;4995564;28;20508;-79
2022/07/23 16:37:49;;;;;;;9.90;8.90;;;23.40;96.30;;;;;;4995266;28;20185;-79
2022/07/23 16:40:14;;;;;;;8.57;7.77;;;23.40;96.30;;;;;;5001444;28;20185;-79
2022/07/23 16:42:40;;;;;;;10.60;9.00;;;23.50;96.30;;;;;;5014892;28;20200;-79
2022/07/23 16:45:06;;;;;;;9.17;8.27;;;23.50;96.30;;;;;;5014993;28;20187;-79
2022/07/23 16:47:32;;;;;;;8.30;7.60;;;23.40;96.30;;;;;;5014613;28;20552;-79
2022/07/23 16:49:57;;;;;;;8.23;7.53;;;23.60;96.30;;;;;;5015012;28;20416;-79
2022/07/23 16:52:23;;;;;;;8.17;7.37;;;23.60;96.30;;;;;;5014880;28;20713;-79
2022/07/23 16:54:48;;;;;;;8.73;7.67;;;23.40;96.30;;;;;;5014817;28;20599;-79
2022/07/23 16:57:14;;;;;;;10.80;7.50;;;23.40;96.30;;;;;;5014673;28;20594;-79